Baltic Betina — 9HDW8 — position and weather

sailwx.info

Track history (hours):
 
Tides and Currents Weather Stations Pressure Air Temp Water Temp Dewpoint Dewpoint Depression Visibility Wind Speed Wind Dir Waves Ship Positions

Baltic Betina

Last reported at 2014-Oct-21 10:34 UTC. Time now 2014-Oct-25 05:41 UTC.
Position N 57°14' E 017°39'.

Length 90 m; draft 4.6 m.

Type: Ship. MMSI: 215869000.

Date/timePositionNaut miles runAvg speedWind from/ knotsBaromVisibWave heightAir tempDewpointWater temp
2014-Oct-21 10:34N 57°14' E 017°39'8311.3
2014-Oct-21 03:11N 55°59' E 016°32'711.1
2014-Oct-21 02:33N 55°56' E 016°21'3611.3
2014-Oct-20 23:23N 55°38' E 015°26'1011.5
2014-Oct-20 22:34N 55°33' E 015°12'1211.6
2014-Oct-20 21:33N 55°27' E 014°54'1111.4
2014-Oct-20 20:33N 55°21' E 014°38'1111.2
2014-Oct-20 19:34N 55°13' E 014°23'1110.9
2014-Oct-20 18:33N 55°11' E 014°05'1111.2
2014-Oct-20 17:33N 55°12' E 013°45'1111.4
2014-Oct-20 16:34N 55°13' E 013°26'1211.6
2014-Oct-20 15:34N 55°14' E 013°05'1211.5
2014-Oct-20 14:33N 55°16' E 012°46'9 8.9
2014-Oct-20 13:33N 55°25' E 012°40'1211.8
2014-Oct-20 12:34N 55°37' E 012°42'1312.9
2014-Oct-20 11:33N 55°49' E 012°40'1211.5
2014-Oct-20 10:34N 56°01' E 012°38'1212.0
2014-Oct-20 09:33N 56°09' E 012°22'1111.3
2014-Oct-20 08:33N 56°06' E 012°02'1110.5
2014-Oct-20 07:31N 55°57' E 011°50'0 0.2
2014-Oct-20 06:27N 55°58' E 011°51'0 0.0
2014-Oct-20 05:34N 55°58' E 011°51'88 8.6
2014-Oct-19 19:19N 57°17' E 010°42'7 9.4
2014-Oct-19 18:33N 57°24' E 010°42'9 8.8
2014-Oct-19 17:34N 57°33' E 010°43'9 9.3
2014-Oct-19 16:33N 57°42' E 010°44'8 7.7
2014-Oct-19 15:33N 57°47' E 010°32'1110.9
2014-Oct-19 14:33N 57°47' E 010°11'121 9.3
2014-Oct-19 01:32N 58°08' E 006°27'8 8.1
2014-Oct-19 00:34N 58°13' E 006°16'8 7.8
2014-Oct-18 23:33N 58°18' E 006°05'7 7.1
2014-Oct-18 22:34N 58°25' E 005°60'2 1.8
2014-Oct-18 21:31N 58°26' E 005°59'0 0.0
2014-Oct-18 20:31N 58°26' E 005°59'0 0.0
2014-Oct-18 19:31N 58°26' E 005°59'0 0.0
2014-Oct-18 18:31N 58°26' E 005°59'0 0.0
2014-Oct-18 17:31N 58°26' E 005°59'0 0.0
2014-Oct-18 16:31N 58°26' E 005°59'0 0.0
2014-Oct-18 15:31N 58°26' E 005°59'0 0.0
2014-Oct-18 14:31N 58°26' E 005°59'0 0.0
2014-Oct-18 13:31N 58°26' E 005°59'0 0.0
2014-Oct-18 12:31N 58°26' E 005°59'0 0.0
2014-Oct-18 11:31N 58°26' E 005°59'0 0.0
2014-Oct-18 10:31N 58°26' E 005°59'0 0.0
2014-Oct-18 09:31N 58°26' E 005°59'0 0.0
2014-Oct-18 08:34N 58°26' E 005°59'0 0.0
2014-Oct-18 07:33N 58°26' E 005°59'0 0.0
2014-Oct-18 06:33N 58°26' E 005°59'0 0.0
2014-Oct-18 05:33N 58°26' E 005°59'0 0.0
2014-Oct-18 04:33N 58°26' E 005°59'0 0.0
2014-Oct-18 03:33N 58°26' E 005°59'0 0.0
2014-Oct-18 02:33N 58°26' E 005°59'0 0.0
2014-Oct-18 01:33N 58°26' E 005°59'0 0.0
2014-Oct-18 00:33N 58°26' E 005°59'3 2.6
2014-Oct-17 23:33N 58°24' E 005°59'6 5.5
2014-Oct-17 22:33N 58°26' E 005°49'7 6.7
2014-Oct-17 21:33N 58°30' E 005°39'0 0.2
2014-Oct-17 20:28N 58°30' E 005°39'2 1.7
2014-Oct-17 19:28N 58°29' E 005°42'1 1.2
2014-Oct-17 18:31N 58°28' E 005°44'7 7.1
2014-Oct-17 17:32N 58°34' E 005°36'1010.4
2014-Oct-17 16:33N 58°43' E 005°28'10 9.8
2014-Oct-17 15:33N 58°53' E 005°31'1010.2
2014-Oct-17 14:33N 59°03' E 005°32'10 9.7
2014-Oct-17 13:33N 59°11' E 005°20'8 8.1
2014-Oct-17 12:33N 59°19' E 005°19'1 0.6
2014-Oct-17 11:29N 59°18' E 005°20'1 1.3
2014-Oct-17 10:33N 59°19' E 005°19'4 3.5
2014-Oct-17 09:23N 59°16' E 005°21'6 7.5
2014-Oct-17 08:33N 59°09' E 005°22'1010.4
2014-Oct-17 07:33N 59°01' E 005°33'5 5.1
2014-Oct-17 06:29N 58°55' E 005°35'0 0.0
2014-Oct-17 05:33N 58°55' E 005°35'9 9.0
2014-Oct-17 04:34N 59°04' E 005°32'1010.1
2014-Oct-17 03:33N 59°12' E 005°20'1111.1
2014-Oct-17 02:33N 59°23' E 005°17'6 0.2
2014-Oct-15 12:33N 59°29' E 005°13'1211.6
2014-Oct-15 11:33N 59°18' E 005°20'1111.0
2014-Oct-15 10:33N 59°08' E 005°27'1110.8
2014-Oct-15 09:33N 59°02' E 005°45'1010.2
2014-Oct-15 08:33N 58°52' E 005°45'1 0.6
2014-Oct-15 07:32N 58°51' E 005°45'0 0.0
2014-Oct-15 06:32N 58°51' E 005°45'0 0.0
2014-Oct-15 05:32N 58°51' E 005°45'0 0.0
2014-Oct-15 04:32N 58°51' E 005°45'0 0.0
2014-Oct-15 03:33N 58°51' E 005°45'10 9.6
2014-Oct-15 02:33N 59°01' E 005°48'1010.3
2014-Oct-15 01:33N 59°06' E 005°31'1010.4
2014-Oct-15 00:33N 59°15' E 005°20'1110.9
2014-Oct-14 23:33N 59°25' E 005°14'5 0.2
2014-Oct-14 01:08N 59°30' E 005°13'610.8
2014-Oct-14 00:33N 59°24' E 005°16'4 3.9
2014-Oct-13 23:31N 59°20' E 005°18'0 0.0
2014-Oct-13 22:30N 59°20' E 005°18'0 0.0
2014-Oct-13 21:11N 59°20' E 005°18'4 5.7
2014-Oct-13 20:34N 59°17' E 005°20'1110.6
2014-Oct-13 19:33N 59°07' E 005°29'1110.9
2014-Oct-13 18:33N 58°56' E 005°33'1211.7
2014-Oct-13 17:33N 58°45' E 005°26'1212.3
2014-Oct-13 16:33N 58°34' E 005°36'1111.4
2014-Oct-13 15:33N 58°25' E 005°50'1212.3
2014-Oct-13 14:33N 58°17' E 006°08'1212.3
2014-Oct-13 13:33N 58°09' E 006°25'115 8.0
2014-Oct-12 23:11N 57°51' E 010°00'710.9
2014-Oct-12 22:33N 57°50' E 010°13'1110.8
2014-Oct-12 21:33N 57°48' E 010°33'8 7.9
2014-Oct-12 20:33N 57°42' E 010°41'2 2.1
2014-Oct-12 19:32N 57°40' E 010°38'0 0.0
2014-Oct-12 18:32N 57°40' E 010°38'0 0.0
2014-Oct-12 17:14N 57°40' E 010°38'0 0.1
2014-Oct-12 15:33N 57°40' E 010°38'1010.5
2014-Oct-12 14:33N 57°30' E 010°40'5 0.6
2014-Oct-12 05:32N 57°26' E 010°33'0 0.0
2014-Oct-12 04:32N 57°26' E 010°33'0 0.0
2014-Oct-12 03:23N 57°26' E 010°33'0 0.0
2014-Oct-12 02:20N 57°26' E 010°33'0 0.0
2014-Oct-12 01:29N 57°26' E 010°33'0 0.0
2014-Oct-12 00:29N 57°26' E 010°33'0 0.0
2014-Oct-11 22:23N 57°26' E 010°33'0 0.0
2014-Oct-11 21:32N 57°26' E 010°33'1 1.4
2014-Oct-11 20:33N 57°25' E 010°34'1312.5
2014-Oct-11 19:30N 57°13' E 010°43'1212.2
2014-Oct-11 18:33N 57°02' E 010°50'  
Track history (hours):
 
Tides and Currents Weather Stations Pressure Air Temp Water Temp Dewpoint Dewpoint Depression Visibility Wind Speed Wind Dir Waves Ship Positions

Baltic Betina

Last reported at 2014-Oct-21 10:34 UTC. Time now 2014-Oct-25 05:41 UTC.
Position N 57°14' E 017°39'.

Length 90 m; draft 4.6 m.

Type: Ship. MMSI: 215869000.

Date/timePositionNaut miles runAvg speedWind from/ knotsBaromVisibWave heightAir tempDewpointWater temp
2014-Oct-21 10:34N 57°14' E 017°39'8311.3
2014-Oct-21 03:11N 55°59' E 016°32'711.1
2014-Oct-21 02:33N 55°56' E 016°21'3611.3
2014-Oct-20 23:23N 55°38' E 015°26'1011.5
2014-Oct-20 22:34N 55°33' E 015°12'1211.6
2014-Oct-20 21:33N 55°27' E 014°54'1111.4
2014-Oct-20 20:33N 55°21' E 014°38'1111.2
2014-Oct-20 19:34N 55°13' E 014°23'1110.9
2014-Oct-20 18:33N 55°11' E 014°05'1111.2
2014-Oct-20 17:33N 55°12' E 013°45'1111.4
2014-Oct-20 16:34N 55°13' E 013°26'1211.6
2014-Oct-20 15:34N 55°14' E 013°05'1211.5
2014-Oct-20 14:33N 55°16' E 012°46'9 8.9
2014-Oct-20 13:33N 55°25' E 012°40'1211.8
2014-Oct-20 12:34N 55°37' E 012°42'1312.9
2014-Oct-20 11:33N 55°49' E 012°40'1211.5
2014-Oct-20 10:34N 56°01' E 012°38'1212.0
2014-Oct-20 09:33N 56°09' E 012°22'1111.3
2014-Oct-20 08:33N 56°06' E 012°02'1110.5
2014-Oct-20 07:31N 55°57' E 011°50'0 0.2
2014-Oct-20 06:27N 55°58' E 011°51'0 0.0
2014-Oct-20 05:34N 55°58' E 011°51'88 8.6
2014-Oct-19 19:19N 57°17' E 010°42'7 9.4
2014-Oct-19 18:33N 57°24' E 010°42'9 8.8
2014-Oct-19 17:34N 57°33' E 010°43'9 9.3
2014-Oct-19 16:33N 57°42' E 010°44'8 7.7
2014-Oct-19 15:33N 57°47' E 010°32'1110.9
2014-Oct-19 14:33N 57°47' E 010°11'121 9.3
2014-Oct-19 01:32N 58°08' E 006°27'8 8.1
2014-Oct-19 00:34N 58°13' E 006°16'8 7.8
2014-Oct-18 23:33N 58°18' E 006°05'7 7.1
2014-Oct-18 22:34N 58°25' E 005°60'2 1.8
2014-Oct-18 21:31N 58°26' E 005°59'0 0.0
2014-Oct-18 20:31N 58°26' E 005°59'0 0.0
2014-Oct-18 19:31N 58°26' E 005°59'0 0.0
2014-Oct-18 18:31N 58°26' E 005°59'0 0.0
2014-Oct-18 17:31N 58°26' E 005°59'0 0.0
2014-Oct-18 16:31N 58°26' E 005°59'0 0.0
2014-Oct-18 15:31N 58°26' E 005°59'0 0.0
2014-Oct-18 14:31N 58°26' E 005°59'0 0.0
2014-Oct-18 13:31N 58°26' E 005°59'0 0.0
2014-Oct-18 12:31N 58°26' E 005°59'0 0.0
2014-Oct-18 11:31N 58°26' E 005°59'0 0.0
2014-Oct-18 10:31N 58°26' E 005°59'0 0.0
2014-Oct-18 09:31N 58°26' E 005°59'0 0.0
2014-Oct-18 08:34N 58°26' E 005°59'0 0.0
2014-Oct-18 07:33N 58°26' E 005°59'0 0.0
2014-Oct-18 06:33N 58°26' E 005°59'0 0.0
2014-Oct-18 05:33N 58°26' E 005°59'0 0.0
2014-Oct-18 04:33N 58°26' E 005°59'0 0.0
2014-Oct-18 03:33N 58°26' E 005°59'0 0.0
2014-Oct-18 02:33N 58°26' E 005°59'0 0.0
2014-Oct-18 01:33N 58°26' E 005°59'0 0.0
2014-Oct-18 00:33N 58°26' E 005°59'3 2.6
2014-Oct-17 23:33N 58°24' E 005°59'6 5.5
2014-Oct-17 22:33N 58°26' E 005°49'7 6.7
2014-Oct-17 21:33N 58°30' E 005°39'0 0.2
2014-Oct-17 20:28N 58°30' E 005°39'2 1.7
2014-Oct-17 19:28N 58°29' E 005°42'1 1.2
2014-Oct-17 18:31N 58°28' E 005°44'7 7.1
2014-Oct-17 17:32N 58°34' E 005°36'1010.4
2014-Oct-17 16:33N 58°43' E 005°28'10 9.8
2014-Oct-17 15:33N 58°53' E 005°31'1010.2
2014-Oct-17 14:33N 59°03' E 005°32'10 9.7
2014-Oct-17 13:33N 59°11' E 005°20'8 8.1
2014-Oct-17 12:33N 59°19' E 005°19'1 0.6
2014-Oct-17 11:29N 59°18' E 005°20'1 1.3
2014-Oct-17 10:33N 59°19' E 005°19'4 3.5
2014-Oct-17 09:23N 59°16' E 005°21'6 7.5
2014-Oct-17 08:33N 59°09' E 005°22'1010.4
2014-Oct-17 07:33N 59°01' E 005°33'5 5.1
2014-Oct-17 06:29N 58°55' E 005°35'0 0.0
2014-Oct-17 05:33N 58°55' E 005°35'9 9.0
2014-Oct-17 04:34N 59°04' E 005°32'1010.1
2014-Oct-17 03:33N 59°12' E 005°20'1111.1
2014-Oct-17 02:33N 59°23' E 005°17'6 0.2
2014-Oct-15 12:33N 59°29' E 005°13'1211.6
2014-Oct-15 11:33N 59°18' E 005°20'1111.0
2014-Oct-15 10:33N 59°08' E 005°27'1110.8
2014-Oct-15 09:33N 59°02' E 005°45'1010.2
2014-Oct-15 08:33N 58°52' E 005°45'1 0.6
2014-Oct-15 07:32N 58°51' E 005°45'0 0.0
2014-Oct-15 06:32N 58°51' E 005°45'0 0.0
2014-Oct-15 05:32N 58°51' E 005°45'0 0.0
2014-Oct-15 04:32N 58°51' E 005°45'0 0.0
2014-Oct-15 03:33N 58°51' E 005°45'10 9.6
2014-Oct-15 02:33N 59°01' E 005°48'1010.3
2014-Oct-15 01:33N 59°06' E 005°31'1010.4
2014-Oct-15 00:33N 59°15' E 005°20'1110.9
2014-Oct-14 23:33N 59°25' E 005°14'5 0.2
2014-Oct-14 01:08N 59°30' E 005°13'610.8
2014-Oct-14 00:33N 59°24' E 005°16'4 3.9
2014-Oct-13 23:31N 59°20' E 005°18'0 0.0
2014-Oct-13 22:30N 59°20' E 005°18'0 0.0
2014-Oct-13 21:11N 59°20' E 005°18'4 5.7
2014-Oct-13 20:34N 59°17' E 005°20'1110.6
2014-Oct-13 19:33N 59°07' E 005°29'1110.9
2014-Oct-13 18:33N 58°56' E 005°33'1211.7
2014-Oct-13 17:33N 58°45' E 005°26'1212.3
2014-Oct-13 16:33N 58°34' E 005°36'1111.4
2014-Oct-13 15:33N 58°25' E 005°50'1212.3
2014-Oct-13 14:33N 58°17' E 006°08'1212.3
2014-Oct-13 13:33N 58°09' E 006°25'115 8.0
2014-Oct-12 23:11N 57°51' E 010°00'710.9
2014-Oct-12 22:33N 57°50' E 010°13'1110.8
2014-Oct-12 21:33N 57°48' E 010°33'8 7.9
2014-Oct-12 20:33N 57°42' E 010°41'2 2.1
2014-Oct-12 19:32N 57°40' E 010°38'0 0.0
2014-Oct-12 18:32N 57°40' E 010°38'0 0.0
2014-Oct-12 17:14N 57°40' E 010°38'0 0.1
2014-Oct-12 15:33N 57°40' E 010°38'1010.5
2014-Oct-12 14:33N 57°30' E 010°40'5 0.6
2014-Oct-12 05:32N 57°26' E 010°33'0 0.0
2014-Oct-12 04:32N 57°26' E 010°33'0 0.0
2014-Oct-12 03:23N 57°26' E 010°33'0 0.0
2014-Oct-12 02:20N 57°26' E 010°33'0 0.0
2014-Oct-12 01:29N 57°26' E 010°33'0 0.0
2014-Oct-12 00:29N 57°26' E 010°33'0 0.0
2014-Oct-11 22:23N 57°26' E 010°33'0 0.0
2014-Oct-11 21:32N 57°26' E 010°33'1 1.4
2014-Oct-11 20:33N 57°25' E 010°34'1312.5
2014-Oct-11 19:30N 57°13' E 010°43'1212.2
2014-Oct-11 18:33N 57°02' E 010°50'  

Dump ship's entire track history